createdAt,value
2022-12-07T00:01:40.145Z,3.00
2022-12-07T00:04:10.942Z,3.04
2022-12-07T00:06:43.916Z,3.03
2022-12-07T00:09:17.844Z,2.97
2022-12-07T00:11:50.976Z,3.01
2022-12-07T00:14:19.811Z,3.00
2022-12-07T00:16:50.431Z,2.97
2022-12-07T00:19:18.422Z,2.87
2022-12-07T00:21:46.261Z,2.94
2022-12-07T00:24:14.059Z,2.96
2022-12-07T00:26:42.684Z,2.93
2022-12-07T00:29:19.143Z,2.93
2022-12-07T00:31:47.129Z,2.91
2022-12-07T00:34:17.504Z,2.95
2022-12-07T00:36:45.256Z,3.01
2022-12-07T00:39:13.200Z,2.98
2022-12-07T00:41:40.953Z,2.86
2022-12-07T00:44:08.930Z,2.84
2022-12-07T00:46:36.712Z,2.86
2022-12-07T00:49:04.551Z,2.90
2022-12-07T00:51:32.293Z,2.91
2022-12-07T00:54:00.089Z,2.93
2022-12-07T00:56:29.615Z,2.97
2022-12-07T00:58:59.832Z,2.95
2022-12-07T01:01:30.424Z,2.95
2022-12-07T01:03:58.531Z,2.92
2022-12-07T01:06:26.869Z,2.88
2022-12-07T01:08:55.148Z,2.81
2022-12-07T01:11:25.398Z,2.82
2022-12-07T01:13:54.707Z,2.86
2022-12-07T01:16:24.347Z,2.84
2022-12-07T01:18:54.143Z,2.84
2022-12-07T01:21:30.904Z,2.81
2022-12-07T01:23:58.725Z,2.69
2022-12-07T01:26:26.954Z,2.65
2022-12-07T01:28:56.217Z,2.72
2022-12-07T01:31:26.008Z,2.75
2022-12-07T01:33:56.217Z,2.73
2022-12-07T01:36:26.369Z,2.67
2022-12-07T01:39:00.646Z,2.67
2022-12-07T01:41:31.163Z,2.60
2022-12-07T01:44:10.064Z,2.61
2022-12-07T01:46:38.672Z,2.67
2022-12-07T01:49:10.530Z,2.62
2022-12-07T01:51:38.845Z,2.59
2022-12-07T01:54:06.924Z,2.59
2022-12-07T01:56:34.956Z,2.56
2022-12-07T01:59:02.666Z,2.56
2022-12-07T02:01:30.453Z,2.58
2022-12-07T02:03:59.258Z,2.57
2022-12-07T02:06:27.506Z,2.60
2022-12-07T02:08:55.273Z,2.57
2022-12-07T02:11:23.291Z,2.51
2022-12-07T02:13:51.895Z,2.48
2022-12-07T02:16:33.223Z,2.53
2022-12-07T02:19:32.984Z,2.48
2022-12-07T02:22:39.808Z,2.47
2022-12-07T02:25:45.657Z,2.51
2022-12-07T02:29:05.589Z,2.47
2022-12-07T02:31:33.973Z,2.52
2022-12-07T02:34:09.492Z,2.50
2022-12-07T02:36:43.614Z,2.51
2022-12-07T02:39:29.576Z,2.51
2022-12-07T02:42:02.074Z,2.50
2022-12-07T02:44:31.856Z,2.49
2022-12-07T02:47:06.121Z,2.50
2022-12-07T02:49:34.779Z,2.54
2022-12-07T02:52:02.503Z,2.60
2022-12-07T02:54:30.203Z,2.58
2022-12-07T02:57:06.388Z,2.64
2022-12-07T03:00:05.669Z,2.69
2022-12-07T03:02:42.236Z,2.66
2022-12-07T03:05:48.810Z,2.57
2022-12-07T03:08:45.963Z,2.44
2022-12-07T03:11:22.296Z,2.36
2022-12-07T03:13:51.491Z,2.31
2022-12-07T03:16:22.819Z,2.34
2022-12-07T03:18:57.191Z,2.34
2022-12-07T03:21:28.421Z,2.37
2022-12-07T03:23:58.135Z,2.30
2022-12-07T03:26:35.873Z,2.23
2022-12-07T03:29:09.134Z,2.26
2022-12-07T03:31:40.694Z,2.37
2022-12-07T03:34:15.941Z,2.39
2022-12-07T03:37:06.786Z,2.34
2022-12-07T03:39:35.645Z,2.36
2022-12-07T03:42:05.691Z,2.32
2022-12-07T03:44:34.488Z,2.31
2022-12-07T03:47:20.558Z,2.24
2022-12-07T03:49:57.995Z,2.20
2022-12-07T03:52:37.665Z,2.16
2022-12-07T03:55:12.878Z,2.14
2022-12-07T03:57:43.305Z,2.06
2022-12-07T04:00:12.395Z,2.02
2022-12-07T04:02:40.986Z,2.09
2022-12-07T04:05:09.292Z,2.13
2022-12-07T04:07:37.184Z,2.12
2022-12-07T04:10:06.147Z,2.12
2022-12-07T04:12:34.018Z,2.15
2022-12-07T04:15:01.898Z,2.13
2022-12-07T04:17:29.593Z,2.07
2022-12-07T04:19:57.312Z,2.03
2022-12-07T04:22:25.315Z,1.95
2022-12-07T04:24:53.028Z,1.93
2022-12-07T04:27:20.737Z,2.00
2022-12-07T04:29:48.624Z,2.10
2022-12-07T04:32:16.362Z,2.12
2022-12-07T04:34:44.141Z,2.13
2022-12-07T04:37:11.845Z,2.14
2022-12-07T04:39:39.653Z,2.13
2022-12-07T04:42:07.440Z,2.12
2022-12-07T04:44:35.296Z,2.15
2022-12-07T04:47:03.554Z,2.17
2022-12-07T04:49:31.796Z,2.21
2022-12-07T04:51:59.744Z,2.25
2022-12-07T04:54:27.457Z,2.29
2022-12-07T04:56:55.380Z,2.32
2022-12-07T04:59:23.044Z,2.38
2022-12-07T05:01:51.012Z,2.38
2022-12-07T05:04:19.048Z,2.39
2022-12-07T05:06:46.792Z,2.41
2022-12-07T05:09:14.941Z,2.40
2022-12-07T05:11:43.188Z,2.43
2022-12-07T05:14:17.378Z,2.45
2022-12-07T05:16:47.601Z,2.46
2022-12-07T05:19:15.826Z,2.47
2022-12-07T05:21:43.563Z,2.46
2022-12-07T05:24:13.094Z,2.46
2022-12-07T05:26:41.148Z,2.49
2022-12-07T05:29:15.463Z,2.50
2022-12-07T05:31:44.356Z,2.52
2022-12-07T05:34:12.618Z,2.51
2022-12-07T05:36:40.473Z,2.44
2022-12-07T05:39:08.365Z,2.47
2022-12-07T05:41:54.707Z,2.47
2022-12-07T05:44:22.655Z,2.44
2022-12-07T05:46:50.477Z,2.41
2022-12-07T05:49:18.327Z,2.41
2022-12-07T05:51:46.146Z,2.32
2022-12-07T05:54:13.915Z,2.27
2022-12-07T05:56:41.887Z,2.28
2022-12-07T05:59:25.912Z,2.31
2022-12-07T06:02:02.344Z,2.33
2022-12-07T06:04:33.749Z,2.26
2022-12-07T06:07:01.610Z,2.27
2022-12-07T06:09:29.578Z,2.27
2022-12-07T06:12:16.730Z,2.27
2022-12-07T06:14:44.761Z,2.28
2022-12-07T06:17:13.458Z,2.29
2022-12-07T06:19:41.468Z,2.29
2022-12-07T06:22:10.093Z,2.36
2022-12-07T06:24:38.224Z,2.34
2022-12-07T06:27:06.880Z,2.37
2022-12-07T06:29:34.642Z,2.42
2022-12-07T06:32:02.477Z,2.33
2022-12-07T06:34:30.473Z,2.34
2022-12-07T06:36:58.170Z,2.26
2022-12-07T06:39:27.376Z,2.30
2022-12-07T06:41:55.285Z,2.21
2022-12-07T06:44:23.520Z,2.13
2022-12-07T06:46:51.894Z,2.16
2022-12-07T06:49:19.870Z,2.20
2022-12-07T06:51:47.605Z,2.16
2022-12-07T06:54:16.748Z,2.14
2022-12-07T06:56:44.542Z,2.22
2022-12-07T06:59:12.388Z,2.22
2022-12-07T07:01:40.247Z,2.20
2022-12-07T07:04:08.166Z,2.17
2022-12-07T07:06:35.910Z,2.11
2022-12-07T07:09:04.060Z,2.10
2022-12-07T07:11:31.865Z,2.12
2022-12-07T07:14:03.128Z,2.15
2022-12-07T07:16:32.065Z,2.16
2022-12-07T07:19:00.126Z,2.20
2022-12-07T07:21:27.814Z,2.22
2022-12-07T07:23:55.575Z,2.28
2022-12-07T07:26:23.585Z,2.35
2022-12-07T07:28:51.341Z,2.44
2022-12-07T07:31:19.172Z,2.54
2022-12-07T07:33:47.933Z,2.61
2022-12-07T07:36:15.711Z,2.63
2022-12-07T07:38:43.434Z,2.69
2022-12-07T07:41:11.263Z,2.68
2022-12-07T07:43:38.971Z,2.71
2022-12-07T07:46:06.831Z,2.70
2022-12-07T07:48:34.881Z,2.72
2022-12-07T07:51:07.074Z,2.70
2022-12-07T07:53:35.080Z,2.68
2022-12-07T07:56:03.037Z,2.76
2022-12-07T07:58:30.765Z,2.83
2022-12-07T08:01:04.857Z,2.83
2022-12-07T08:03:32.629Z,2.88
2022-12-07T08:06:00.328Z,2.92
2022-12-07T08:08:28.071Z,3.03
2022-12-07T08:10:55.979Z,3.16
2022-12-07T08:13:27.636Z,3.24
2022-12-07T08:15:59.306Z,3.30
2022-12-07T08:18:27.111Z,3.41
2022-12-07T08:21:01.907Z,3.37
2022-12-07T08:23:37.637Z,3.34
2022-12-07T08:26:12.431Z,3.37
2022-12-07T08:28:40.474Z,3.45
2022-12-07T08:31:13.967Z,3.44
2022-12-07T08:33:42.154Z,3.55
2022-12-07T08:36:12.140Z,3.70
2022-12-07T08:38:44.994Z,3.79
2022-12-07T08:41:19.722Z,3.85
2022-12-07T08:43:47.554Z,3.93
2022-12-07T08:46:37.769Z,3.96
2022-12-07T08:49:21.643Z,3.95
2022-12-07T08:51:49.527Z,3.94
2022-12-07T08:54:18.727Z,3.98
2022-12-07T08:56:47.366Z,3.92
2022-12-07T08:59:16.285Z,3.73
2022-12-07T09:01:44.278Z,3.79
2022-12-07T09:04:12.254Z,3.85
2022-12-07T09:06:40.232Z,3.81
2022-12-07T09:09:08.480Z,3.77
2022-12-07T09:11:36.274Z,3.64
2022-12-07T09:14:04.004Z,3.58
2022-12-07T09:16:31.922Z,3.43
2022-12-07T09:18:59.854Z,3.43
2022-12-07T09:21:27.614Z,3.46
2022-12-07T09:23:55.425Z,3.51
2022-12-07T09:26:23.281Z,3.61
2022-12-07T09:28:50.994Z,3.70
2022-12-07T09:31:23.768Z,3.85
2022-12-07T09:33:57.704Z,3.96
2022-12-07T09:36:26.521Z,3.99
2022-12-07T09:38:54.304Z,4.00
2022-12-07T09:41:23.139Z,4.01
2022-12-07T09:43:51.123Z,3.98
2022-12-07T09:46:20.667Z,3.90
2022-12-07T09:48:51.067Z,3.91
2022-12-07T09:51:24.933Z,3.90
2022-12-07T09:53:55.253Z,3.92
2022-12-07T09:56:23.729Z,3.94
2022-12-07T09:58:57.864Z,4.00
2022-12-07T10:01:25.652Z,3.98
2022-12-07T10:03:55.803Z,3.97
2022-12-07T10:06:23.557Z,3.94
2022-12-07T10:08:51.362Z,3.90
2022-12-07T10:11:19.250Z,3.90
2022-12-07T10:13:50.141Z,3.87
2022-12-07T10:16:39.371Z,3.84
2022-12-07T10:19:31.268Z,3.76
2022-12-07T10:22:14.636Z,3.62
2022-12-07T10:24:44.208Z,3.57
2022-12-07T10:27:21.827Z,3.50
2022-12-07T10:29:52.213Z,3.55
2022-12-07T10:32:19.936Z,3.55
2022-12-07T10:34:52.102Z,3.47
2022-12-07T10:37:21.409Z,3.39
2022-12-07T10:39:51.622Z,3.34
2022-12-07T10:42:24.336Z,3.28
2022-12-07T10:45:16.630Z,3.25
2022-12-07T10:47:56.969Z,3.23
2022-12-07T10:50:40.092Z,3.20
2022-12-07T10:53:38.865Z,3.22
2022-12-07T10:56:31.286Z,3.22
2022-12-07T10:59:14.472Z,3.28
2022-12-07T11:01:53.013Z,3.29
2022-12-07T11:04:51.655Z,3.25
2022-12-07T11:07:38.955Z,3.30
2022-12-07T11:10:28.495Z,3.34
2022-12-07T11:13:10.724Z,3.38
2022-12-07T11:15:55.683Z,3.41
2022-12-07T11:18:25.614Z,3.34
2022-12-07T11:21:01.299Z,3.39
2022-12-07T11:24:06.377Z,3.38
2022-12-07T11:27:00.972Z,3.46
2022-12-07T11:30:00.767Z,3.45
2022-12-07T11:32:57.055Z,3.42
2022-12-07T11:35:54.269Z,3.44
2022-12-07T11:38:35.423Z,3.32
2022-12-07T11:41:14.336Z,3.29
2022-12-07T11:43:53.863Z,3.19
2022-12-07T11:46:25.922Z,3.24
2022-12-07T11:49:04.904Z,3.19
2022-12-07T11:51:35.689Z,3.15
2022-12-07T11:54:12.476Z,3.19
2022-12-07T11:56:40.174Z,3.17
2022-12-07T11:59:17.384Z,3.14
2022-12-07T12:02:11.786Z,3.16
2022-12-07T12:05:17.353Z,3.30
2022-12-07T12:10:55.774Z,3.54
2022-12-07T12:16:50.363Z,3.77
2022-12-07T12:19:28.689Z,3.98
2022-12-07T12:21:59.149Z,4.05
2022-12-07T12:24:28.328Z,4.02
2022-12-07T12:27:16.038Z,4.05
2022-12-07T12:29:44.921Z,4.13
2022-12-07T12:32:15.419Z,4.19
2022-12-07T12:35:24.284Z,4.23
2022-12-07T12:37:53.718Z,4.14
2022-12-07T12:40:21.368Z,4.08
2022-12-07T12:42:54.695Z,4.03
2022-12-07T12:45:23.952Z,3.97
2022-12-07T12:47:57.446Z,3.95
2022-12-07T12:50:33.808Z,3.92
2022-12-07T12:53:26.702Z,3.91
2022-12-07T12:56:44.233Z,3.91
2022-12-07T12:59:32.957Z,3.96
2022-12-07T13:02:23.154Z,4.11
2022-12-07T13:05:13.828Z,4.32
2022-12-07T13:07:54.019Z,4.15
2022-12-07T13:10:24.689Z,4.05
2022-12-07T13:13:00.456Z,4.01
2022-12-07T13:16:09.805Z,3.92
2022-12-07T13:18:38.788Z,3.81
2022-12-07T13:21:09.394Z,3.76
2022-12-07T13:23:46.500Z,3.66
2022-12-07T13:26:39.661Z,3.57
2022-12-07T13:29:10.490Z,3.52
2022-12-07T13:31:53.093Z,3.52
2022-12-07T13:34:34.728Z,3.50
2022-12-07T13:37:16.883Z,3.49
2022-12-07T13:39:50.842Z,3.50
2022-12-07T13:42:29.822Z,3.49
2022-12-07T13:45:00.876Z,3.42
2022-12-07T13:47:38.059Z,3.44
2022-12-07T13:50:25.956Z,3.45
2022-12-07T13:52:57.144Z,3.50
2022-12-07T13:55:24.973Z,3.51
2022-12-07T13:57:56.249Z,3.47
2022-12-07T14:00:26.333Z,3.53
2022-12-07T14:03:03.402Z,3.61
2022-12-07T14:05:33.238Z,3.71
2022-12-07T14:08:03.181Z,3.82
2022-12-07T14:10:42.357Z,3.83
2022-12-07T14:14:00.139Z,3.92
2022-12-07T14:16:33.811Z,3.97
2022-12-07T14:19:05.106Z,4.00
2022-12-07T14:21:34.900Z,3.96
2022-12-07T14:24:10.279Z,3.96
2022-12-07T14:26:42.028Z,3.94
2022-12-07T14:29:31.519Z,3.92
2022-12-07T14:32:13.660Z,3.87
2022-12-07T14:34:41.454Z,3.73
2022-12-07T14:37:10.577Z,3.64
2022-12-07T14:39:38.338Z,3.56
2022-12-07T14:42:06.134Z,3.51
2022-12-07T14:44:36.049Z,3.53
2022-12-07T14:49:51.699Z,3.52
2022-12-07T14:55:30.244Z,3.59
2022-12-07T14:57:59.670Z,3.52
2022-12-07T15:00:29.125Z,3.46
2022-12-07T15:02:57.807Z,3.46
2022-12-07T15:05:25.585Z,3.44
2022-12-07T15:07:53.495Z,3.43
2022-12-07T15:10:31.044Z,3.36
2022-12-07T15:13:18.863Z,3.36
2022-12-07T15:15:50.634Z,3.29
2022-12-07T15:18:19.341Z,3.26
2022-12-07T15:20:47.640Z,3.24
2022-12-07T15:23:16.157Z,3.23
2022-12-07T15:25:45.594Z,3.26
2022-12-07T15:28:13.876Z,3.29
2022-12-07T15:30:43.763Z,3.23
2022-12-07T15:33:12.516Z,3.21
2022-12-07T15:35:41.725Z,3.17
2022-12-07T15:38:09.859Z,3.12
2022-12-07T15:40:37.766Z,3.09
2022-12-07T15:43:05.743Z,3.12
2022-12-07T15:45:33.461Z,3.11
2022-12-07T15:50:48.924Z,3.08
2022-12-07T15:53:16.661Z,3.06
2022-12-07T15:55:44.531Z,3.08
2022-12-07T15:58:12.690Z,3.06
2022-12-07T16:00:40.412Z,3.03
2022-12-07T16:03:08.299Z,3.07
2022-12-07T16:05:36.135Z,3.09
2022-12-07T16:08:04.344Z,3.06
2022-12-07T16:10:32.123Z,3.07
2022-12-07T16:12:59.944Z,3.07
2022-12-07T16:15:27.952Z,3.06
2022-12-07T16:17:56.609Z,3.02
2022-12-07T16:20:24.393Z,3.01
2022-12-07T16:22:54.096Z,3.05
2022-12-07T16:25:21.798Z,3.09
2022-12-07T16:27:49.569Z,3.15
2022-12-07T16:30:17.407Z,3.16
2022-12-07T16:32:45.293Z,3.16
2022-12-07T16:35:14.106Z,3.18
2022-12-07T16:37:45.041Z,3.23
2022-12-07T16:40:13.160Z,3.28
2022-12-07T16:42:40.911Z,3.32
2022-12-07T16:45:09.341Z,3.36
2022-12-07T16:47:40.602Z,3.38
2022-12-07T16:50:08.859Z,3.37
2022-12-07T16:52:36.619Z,3.35
2022-12-07T16:55:05.310Z,3.27
2022-12-07T16:57:33.368Z,3.25
2022-12-07T17:00:01.076Z,3.18
2022-12-07T17:02:29.340Z,3.12
2022-12-07T17:04:57.553Z,3.05
2022-12-07T17:07:25.304Z,2.99
2022-12-07T17:09:53.762Z,3.00
2022-12-07T17:12:21.474Z,3.03
2022-12-07T17:15:27.464Z,3.01
2022-12-07T17:17:57.641Z,2.95
2022-12-07T17:20:27.523Z,2.95
2022-12-07T17:22:55.585Z,2.93
2022-12-07T17:25:23.748Z,2.87
2022-12-07T17:27:51.952Z,2.77
2022-12-07T17:30:20.188Z,2.71
2022-12-07T17:32:47.912Z,2.72
2022-12-07T17:35:15.804Z,2.64
2022-12-07T17:37:48.952Z,2.60
2022-12-07T17:40:18.612Z,2.60
2022-12-07T17:42:50.216Z,2.58
2022-12-07T17:45:17.997Z,2.57
2022-12-07T17:47:45.714Z,2.53
2022-12-07T17:50:13.455Z,2.53
2022-12-07T17:53:00.271Z,2.54
2022-12-07T17:55:28.300Z,2.51
2022-12-07T17:57:56.044Z,2.48
2022-12-07T18:00:23.792Z,2.44
2022-12-07T18:02:51.773Z,2.35
2022-12-07T18:05:19.814Z,2.36
2022-12-07T18:07:47.944Z,2.39
2022-12-07T18:10:15.871Z,2.40
2022-12-07T18:12:48.876Z,2.42
2022-12-07T18:15:19.503Z,2.47
2022-12-07T18:17:47.475Z,2.47
2022-12-07T18:20:15.448Z,2.47
2022-12-07T18:22:43.250Z,2.47
2022-12-07T18:25:10.956Z,2.41
2022-12-07T18:27:38.716Z,2.36
2022-12-07T18:30:07.256Z,2.36
2022-12-07T18:32:34.964Z,2.31
2022-12-07T18:35:03.086Z,2.28
2022-12-07T18:37:31.608Z,2.28
2022-12-07T18:39:59.318Z,2.16
2022-12-07T18:42:27.053Z,2.10
2022-12-07T18:44:54.772Z,2.04
2022-12-07T18:47:22.703Z,2.02
2022-12-07T18:49:50.425Z,2.07
2022-12-07T18:52:18.215Z,2.10
2022-12-07T18:54:47.237Z,2.12
2022-12-07T18:57:15.108Z,2.12
2022-12-07T18:59:49.872Z,2.16
2022-12-07T19:02:19.169Z,2.14
2022-12-07T19:04:47.371Z,2.13
2022-12-07T19:07:15.325Z,2.13
2022-12-07T19:09:43.312Z,2.09
2022-12-07T19:12:13.054Z,2.04
2022-12-07T19:14:41.610Z,2.03
2022-12-07T19:17:13.116Z,2.03
2022-12-07T19:19:43.576Z,2.02
2022-12-07T19:22:13.633Z,1.97
2022-12-07T19:24:44.432Z,1.98
2022-12-07T19:27:12.757Z,1.96
2022-12-07T19:29:41.671Z,1.90
2022-12-07T19:32:09.852Z,1.92
2022-12-07T19:34:38.980Z,1.96
2022-12-07T19:37:06.966Z,1.99
2022-12-07T19:39:35.029Z,2.06
2022-12-07T19:42:03.919Z,2.08
2022-12-07T19:44:33.971Z,2.12
2022-12-07T19:47:05.189Z,2.17
2022-12-07T19:49:35.904Z,2.12
2022-12-07T19:52:07.181Z,2.14
2022-12-07T19:54:35.777Z,2.13
2022-12-07T19:57:07.374Z,2.13
2022-12-07T19:59:35.255Z,2.15
2022-12-07T20:02:03.180Z,2.18
2022-12-07T20:04:32.719Z,2.20
2022-12-07T20:07:01.568Z,2.26
2022-12-07T20:09:29.311Z,2.32
2022-12-07T20:12:15.506Z,2.30
2022-12-07T20:14:43.424Z,2.34
2022-12-07T20:17:11.264Z,2.40
2022-12-07T20:19:39.455Z,2.43
2022-12-07T20:22:07.651Z,2.46
2022-12-07T20:24:36.296Z,2.46
2022-12-07T20:27:05.141Z,2.52
2022-12-07T20:29:33.274Z,2.65
2022-12-07T20:32:01.340Z,2.73
2022-12-07T20:34:29.178Z,2.60
2022-12-07T20:36:57.005Z,2.60
2022-12-07T20:39:25.961Z,2.62
2022-12-07T20:42:12.129Z,2.64
2022-12-07T20:44:40.218Z,2.66
2022-12-07T20:47:08.143Z,2.71
2022-12-07T20:49:35.921Z,2.76
2022-12-07T20:52:04.222Z,2.79
2022-12-07T20:54:32.021Z,2.80
2022-12-07T20:56:59.816Z,2.80
2022-12-07T20:59:27.614Z,2.76
2022-12-07T21:01:55.377Z,2.78
2022-12-07T21:04:23.867Z,2.77
2022-12-07T21:06:51.736Z,2.70
2022-12-07T21:09:21.811Z,2.75
2022-12-07T21:11:49.521Z,2.65
2022-12-07T21:14:17.249Z,2.58
2022-12-07T21:16:45.004Z,2.55
2022-12-07T21:19:12.750Z,2.52
2022-12-07T21:21:40.711Z,2.48
2022-12-07T21:24:11.853Z,2.46
2022-12-07T21:26:39.655Z,2.48
2022-12-07T21:29:07.914Z,2.43
2022-12-07T21:31:38.578Z,2.41
2022-12-07T21:34:07.018Z,2.47
2022-12-07T21:36:35.423Z,2.50
2022-12-07T21:39:04.009Z,2.47
2022-12-07T21:41:34.915Z,2.46
2022-12-07T21:44:05.876Z,2.51
2022-12-07T21:46:34.813Z,2.59
2022-12-07T21:49:08.280Z,2.61
2022-12-07T21:51:36.700Z,2.63
2022-12-07T21:54:05.201Z,2.59
2022-12-07T21:56:39.776Z,2.56
2022-12-07T21:59:12.801Z,2.55
2022-12-07T22:01:42.266Z,2.58
2022-12-07T22:04:17.036Z,2.54
2022-12-07T22:06:45.638Z,2.54
2022-12-07T22:09:13.748Z,2.56
2022-12-07T22:11:41.500Z,2.57
2022-12-07T22:14:28.700Z,2.61
2022-12-07T22:16:57.814Z,2.68
2022-12-07T22:19:26.261Z,2.71
2022-12-07T22:21:54.169Z,2.71
2022-12-07T22:24:22.108Z,2.72
2022-12-07T22:26:49.911Z,2.66
2022-12-07T22:29:17.698Z,2.67
2022-12-07T22:31:49.224Z,2.66
2022-12-07T22:34:21.325Z,2.67
2022-12-07T22:36:49.025Z,2.76
2022-12-07T22:39:16.989Z,2.83
2022-12-07T22:41:44.789Z,2.92
2022-12-07T22:44:12.556Z,2.97
2022-12-07T22:46:40.899Z,2.97
2022-12-07T22:49:08.757Z,3.04
2022-12-07T22:51:38.671Z,3.08
2022-12-07T22:54:13.151Z,3.13
2022-12-07T22:56:41.510Z,3.15
2022-12-07T22:59:09.704Z,3.16
2022-12-07T23:01:37.458Z,3.14
2022-12-07T23:04:05.468Z,3.12
2022-12-07T23:06:36.301Z,3.12
2022-12-07T23:09:07.058Z,3.19
2022-12-07T23:11:56.360Z,3.21
2022-12-07T23:14:27.978Z,3.20
2022-12-07T23:16:55.749Z,3.17
2022-12-07T23:19:23.452Z,3.20
2022-12-07T23:21:51.195Z,3.18
2022-12-07T23:24:18.952Z,3.20
2022-12-07T23:26:46.981Z,3.27
2022-12-07T23:29:17.937Z,3.33
2022-12-07T23:31:47.464Z,3.36
2022-12-07T23:34:15.709Z,3.36
2022-12-07T23:36:43.539Z,3.31
2022-12-07T23:39:11.630Z,3.27
2022-12-07T23:41:39.406Z,3.28
2022-12-07T23:44:07.469Z,3.30
2022-12-07T23:46:35.411Z,3.37
2022-12-07T23:49:05.382Z,3.44
2022-12-07T23:51:33.853Z,3.50
2022-12-07T23:54:02.460Z,3.53
2022-12-07T23:56:32.095Z,3.53
2022-12-07T23:59:00.982Z,3.45
